Time;durP1;ratioP1;P1;durP2;ratioP2;P2;SDS_P1;SDS_P2;PMS_P1;PMS_P2;Temp;Humidity;BMP_temperature;BMP_pressure;BME280_temperature;BME280_humidity;BME280_pressure;Samples;Min_cycle;Max_cycle;Signal;HPM_P1;HPM_P2
2023/12/04 00:01:10;;;;;;;8.02;5.80;;;;;;;6.45;79.01;100067.41;5134147;27;20031;-26
2023/12/04 00:03:35;;;;;;;9.10;5.85;;;;;;;6.24;78.90;100073.22;5134156;27;20057;-26
2023/12/04 00:06:00;;;;;;;8.63;5.82;;;;;;;6.20;79.53;100071.06;5133492;27;20065;-26
2023/12/04 00:08:26;;;;;;;11.38;6.63;;;;;;;5.87;79.91;100078.97;5133029;27;20023;-26
2023/12/04 00:10:52;;;;;;;8.15;5.78;;;;;;;6.03;80.32;100083.44;5133840;27;20043;-26
2023/12/04 00:13:17;;;;;;;9.52;5.95;;;;;;;6.00;80.00;100089.09;5133744;27;20027;-26
2023/12/04 00:15:44;;;;;;;10.07;6.18;;;;;;;5.76;80.03;100095.94;5133906;27;20079;-25
2023/12/04 00:18:09;;;;;;;9.43;5.93;;;;;;;5.68;80.57;100098.59;5133895;27;20031;-26
2023/12/04 00:20:35;;;;;;;9.57;5.85;;;;;;;5.80;81.14;100083.25;5134023;27;20105;-26
2023/12/04 00:23:00;;;;;;;8.80;5.88;;;;;;;5.88;78.97;100107.88;5133918;27;20057;-26
2023/12/04 00:25:26;;;;;;;10.77;6.30;;;;;;;5.92;79.44;100111.00;5133738;27;20045;-26
2023/12/04 00:27:51;;;;;;;8.50;5.88;;;;;;;6.02;78.60;100116.16;5134353;27;20038;-25
2023/12/04 00:30:16;;;;;;;10.10;6.20;;;;;;;5.97;78.69;100118.47;5133775;27;20698;-26
2023/12/04 00:32:42;;;;;;;13.20;6.50;;;;;;;5.83;78.51;100130.47;5133730;27;20031;-26
2023/12/04 00:35:07;;;;;;;10.90;5.93;;;;;;;5.26;80.13;100139.91;5133492;27;20455;-26
2023/12/04 00:37:37;;;;;;;11.25;6.22;;;;;;;5.50;79.68;100143.59;5133719;27;20037;-27
2023/12/04 00:40:03;;;;;;;10.20;6.10;;;;;;;5.25;78.85;100143.53;5134009;27;20023;-26
2023/12/04 00:42:28;;;;;;;10.35;6.22;;;;;;;5.41;77.90;100134.84;5134159;27;20039;-26
2023/12/04 00:44:53;;;;;;;8.52;5.50;;;;;;;4.81;80.48;100132.25;5133738;27;20019;-26
2023/12/04 00:47:19;;;;;;;9.32;5.70;;;;;;;5.54;78.77;100128.25;5134209;27;20055;-26
2023/12/04 00:49:44;;;;;;;10.73;6.00;;;;;;;5.46;78.40;100115.88;5133543;27;20050;-26
2023/12/04 00:52:09;;;;;;;10.05;5.28;;;;;;;5.23;76.83;100110.34;5133556;27;20101;-26
2023/12/04 00:54:35;;;;;;;9.93;5.55;;;;;;;5.13;77.28;100125.50;5133594;27;20059;-26
2023/12/04 00:57:00;;;;;;;6.95;4.75;;;;;;;5.06;76.79;100120.00;5132843;27;20070;-26
2023/12/04 00:59:26;;;;;;;9.55;5.20;;;;;;;5.02;77.70;100132.69;5133345;27;20111;-26
2023/12/04 01:01:52;;;;;;;10.77;6.20;;;;;;;4.93;77.46;100138.94;5133217;27;20389;-26
2023/12/04 01:04:17;;;;;;;8.60;5.75;;;;;;;5.16;78.59;100147.13;5133454;27;20092;-27
2023/12/04 01:06:42;;;;;;;8.27;5.47;;;;;;;5.15;78.51;100147.28;5133225;27;20038;-26
2023/12/04 01:09:08;;;;;;;9.32;5.65;;;;;;;5.35;76.63;100147.84;5133378;27;20110;-26
2023/12/04 01:11:33;;;;;;;6.82;4.60;;;;;;;5.06;75.82;100155.16;5133104;27;20524;-26
2023/12/04 01:13:58;;;;;;;7.45;4.53;;;;;;;5.13;74.66;100149.25;5132896;27;20047;-26
2023/12/04 01:16:24;;;;;;;8.90;5.05;;;;;;;4.94;75.30;100148.47;5132848;27;20023;-26
2023/12/04 01:18:49;;;;;;;9.18;5.20;;;;;;;5.23;74.06;100156.03;5133006;27;20026;-25
2023/12/04 01:21:15;;;;;;;8.27;5.13;;;;;;;5.29;74.07;100146.66;5132731;27;20054;-27
2023/12/04 01:23:40;;;;;;;8.13;4.95;;;;;;;5.23;73.42;100142.84;5134069;27;20095;-26
2023/12/04 01:26:06;;;;;;;8.10;5.20;;;;;;;5.63;73.44;100158.97;5132432;27;20027;-26
2023/12/04 01:28:31;;;;;;;9.48;5.18;;;;;;;5.28;72.85;100166.13;5132729;27;20030;-26
2023/12/04 01:30:57;;;;;;;8.05;4.90;;;;;;;5.42;73.24;100164.69;5132812;27;20094;-26
2023/12/04 01:33:22;;;;;;;8.13;4.80;;;;;;;5.63;72.46;100159.78;5132954;27;20161;-26
2023/12/04 01:35:47;;;;;;;7.20;4.38;;;;;;;5.12;72.92;100166.03;5114072;27;20059;-26
2023/12/04 01:38:13;;;;;;;9.00;5.05;;;;;;;5.12;73.12;100166.88;5132745;27;20520;-25
2023/12/04 01:40:38;;;;;;;7.93;5.00;;;;;;;5.31;73.50;100171.06;5132586;27;20027;-26
2023/12/04 01:43:04;;;;;;;9.13;5.00;;;;;;;5.06;72.79;100167.50;5132175;27;20520;-26
2023/12/04 01:45:29;;;;;;;9.27;4.93;;;;;;;5.21;72.70;100171.19;5132484;27;20068;-26
2023/12/04 01:47:55;;;;;;;6.78;4.03;;;;;;;5.25;72.47;100166.44;5132088;27;20379;-26
2023/12/04 01:50:20;;;;;;;10.15;5.00;;;;;;;5.60;71.39;100175.16;5131800;27;20087;-26
2023/12/04 01:52:46;;;;;;;8.25;4.88;;;;;;;5.24;72.74;100176.16;5131891;27;20145;-26
2023/12/04 01:55:13;;;;;;;6.88;4.47;;;;;;;5.14;73.58;100170.19;5131943;27;20047;-26
2023/12/04 01:57:38;;;;;;;7.13;4.43;;;;;;;5.18;72.25;100178.59;5131872;27;20038;-26
2023/12/04 02:00:08;;;;;;;7.05;4.65;;;;;;;5.21;72.39;100170.38;5132014;27;20015;-26
2023/12/04 02:02:37;;;;;;;8.52;4.70;;;;;;;5.20;72.52;100182.75;5132364;27;20120;-26
2023/12/04 02:05:04;;;;;;;7.15;4.63;;;;;;;5.40;72.14;100172.75;5131778;27;20145;-26
2023/12/04 02:07:31;;;;;;;8.40;4.72;;;;;;;5.39;71.29;100170.31;5131591;27;20355;-26
2023/12/04 02:09:56;;;;;;;8.23;4.65;;;;;;;5.19;70.92;100177.63;5130860;27;20019;-26
2023/12/04 02:12:22;;;;;;;6.78;4.72;;;;;;;5.43;70.42;100185.66;5131759;27;20026;-26
2023/12/04 02:14:47;;;;;;;7.40;4.72;;;;;;;5.26;70.17;100179.47;5131657;27;20019;-26
2023/12/04 02:17:14;;;;;;;6.70;4.07;;;;;;;5.48;70.41;100172.81;5131864;27;20031;-26
2023/12/04 02:19:39;;;;;;;7.75;4.40;;;;;;;5.33;70.49;100177.06;5132041;27;20026;-26
2023/12/04 02:22:05;;;;;;;9.43;5.07;;;;;;;5.37;70.06;100186.28;5131772;27;20023;-26
2023/12/04 02:24:33;;;;;;;6.65;4.20;;;;;;;5.41;69.23;100192.91;5131490;27;20034;-26
2023/12/04 02:27:10;;;;;;;7.43;4.22;;;;;;;5.41;68.62;100202.66;5131255;27;20022;-26
2023/12/04 02:29:43;;;;;;;8.40;4.25;;;;;;;5.38;68.30;100216.97;5131768;27;20722;-26
2023/12/04 02:32:14;;;;;;;6.15;3.95;;;;;;;5.07;68.43;100211.38;5131551;27;20463;-26
2023/12/04 02:34:41;;;;;;;5.53;3.90;;;;;;;4.94;68.48;100213.59;5131799;27;20463;-27
2023/12/04 02:37:09;;;;;;;5.65;3.78;;;;;;;5.00;68.22;100219.06;5131453;27;20033;-26
2023/12/04 02:39:35;;;;;;;6.07;3.90;;;;;;;4.94;68.63;100211.78;5132028;27;20019;-26
2023/12/04 02:42:01;;;;;;;5.18;3.30;;;;;;;4.78;67.15;100215.16;5131864;27;20023;-26
2023/12/04 02:44:26;;;;;;;5.88;3.53;;;;;;;4.82;67.77;100220.94;5131639;27;20498;-26
2023/12/04 02:46:51;;;;;;;6.03;3.83;;;;;;;4.93;67.88;100220.69;5132246;27;20046;-25
2023/12/04 02:49:17;;;;;;;6.05;3.60;;;;;;;4.92;68.57;100221.66;5131409;27;20102;-25
2023/12/04 02:51:42;;;;;;;5.82;3.70;;;;;;;4.81;67.65;100216.66;5131235;27;20031;-25
2023/12/04 02:54:07;;;;;;;5.38;3.55;;;;;;;4.96;67.38;100211.63;5131400;27;20019;-26
2023/12/04 02:56:33;;;;;;;5.30;3.65;;;;;;;4.83;67.35;100209.41;5131048;27;20090;-25
2023/12/04 02:58:58;;;;;;;5.22;3.63;;;;;;;4.80;66.78;100213.19;5131150;27;20083;-26
2023/12/04 03:01:24;;;;;;;4.88;3.40;;;;;;;5.05;66.09;100226.53;5131167;28;20027;-26
2023/12/04 03:03:49;;;;;;;5.68;3.78;;;;;;;4.85;66.26;100228.53;5131715;28;20019;-26
2023/12/04 03:06:16;;;;;;;5.72;3.85;;;;;;;4.85;66.61;100234.63;5131365;28;20478;-26
2023/12/04 03:08:42;;;;;;;6.88;3.97;;;;;;;4.76;66.64;100229.47;5131125;28;20031;-26
2023/12/04 03:11:07;;;;;;;7.18;4.18;;;;;;;4.72;66.15;100241.28;5131663;28;20019;-26
2023/12/04 03:13:33;;;;;;;6.40;4.07;;;;;;;4.62;65.97;100246.66;5131311;28;20038;-27
2023/12/04 03:15:59;;;;;;;7.88;3.92;;;;;;;4.44;66.88;100252.78;5131183;28;20019;-26
2023/12/04 03:18:25;;;;;;;6.43;3.95;;;;;;;4.69;65.95;100259.06;5131368;28;20364;-26
2023/12/04 03:20:51;;;;;;;6.57;3.88;;;;;;;5.07;64.88;100264.97;5132496;27;20027;-26
2023/12/04 03:23:16;;;;;;;7.60;4.40;;;;;;;4.87;64.75;100263.50;5135082;27;20056;-27
2023/12/04 03:25:41;;;;;;;5.90;3.45;;;;;;;4.24;66.43;100272.34;5135322;27;20055;-27
2023/12/04 03:28:07;;;;;;;6.55;4.05;;;;;;;4.44;67.48;100281.78;5135386;27;20030;-27
2023/12/04 03:30:32;;;;;;;9.00;3.78;;;;;;;4.19;66.94;100270.16;5135028;27;20563;-27
2023/12/04 03:32:58;;;;;;;6.13;4.07;;;;;;;4.26;67.12;100278.28;5134898;27;20019;-27
2023/12/04 03:35:23;;;;;;;6.30;3.78;;;;;;;4.19;66.43;100270.16;5135149;27;20458;-27
2023/12/04 03:37:49;;;;;;;5.95;4.05;;;;;;;4.00;66.19;100281.66;5134822;27;20029;-27
2023/12/04 03:40:15;;;;;;;7.13;4.30;;;;;;;4.27;66.40;100272.88;5135181;27;20023;-26
2023/12/04 03:42:41;;;;;;;6.60;4.30;;;;;;;4.06;66.56;100274.97;5135124;27;20023;-27
2023/12/04 03:45:07;;;;;;;6.43;4.22;;;;;;;3.92;66.54;100265.75;5134971;27;20133;-27
2023/12/04 03:47:32;;;;;;;6.60;4.05;;;;;;;4.14;66.75;100277.69;5135081;27;20015;-27
2023/12/04 03:49:57;;;;;;;8.32;4.22;;;;;;;4.10;65.76;100271.88;5134833;27;20023;-27
2023/12/04 03:52:23;;;;;;;6.25;4.10;;;;;;;4.01;65.61;100271.94;5134529;27;20055;-26
2023/12/04 03:54:48;;;;;;;6.10;3.97;;;;;;;3.92;65.73;100273.63;5134658;27;20058;-26
2023/12/04 03:57:13;;;;;;;5.68;3.58;;;;;;;4.17;65.50;100281.81;5134444;27;20035;-27
2023/12/04 03:59:39;;;;;;;5.05;3.60;;;;;;;4.20;64.98;100287.63;5134557;27;20103;-27
2023/12/04 04:02:04;;;;;;;7.50;3.97;;;;;;;4.21;64.61;100294.56;5134721;27;20023;-25
2023/12/04 04:04:29;;;;;;;5.40;3.65;;;;;;;4.05;63.83;100291.72;5134358;27;20409;-25
2023/12/04 04:06:55;;;;;;;9.60;4.28;;;;;;;3.94;64.01;100294.56;5134185;27;20027;-25
2023/12/04 04:09:20;;;;;;;6.25;3.67;;;;;;;3.99;64.65;100279.97;5134179;27;20034;-25
2023/12/04 04:11:46;;;;;;;6.25;3.83;;;;;;;4.19;64.88;100285.97;5134452;27;20023;-25
2023/12/04 04:14:11;;;;;;;6.78;3.80;;;;;;;4.28;64.60;100281.59;5134843;27;20356;-25
2023/12/04 04:16:37;;;;;;;6.45;3.70;;;;;;;4.40;63.81;100292.75;5134492;27;20075;-26
2023/12/04 04:19:02;;;;;;;6.50;4.10;;;;;;;4.31;62.97;100299.75;5134152;27;20451;-25
2023/12/04 04:21:27;;;;;;;6.97;4.05;;;;;;;4.16;63.53;100304.69;5134002;27;20023;-26
2023/12/04 04:23:53;;;;;;;5.80;3.78;;;;;;;4.12;62.81;100300.72;5133930;27;20027;-26
2023/12/04 04:26:19;;;;;;;6.43;3.80;;;;;;;4.03;63.17;100312.94;5134361;27;20094;-26
2023/12/04 04:28:44;;;;;;;6.22;4.30;;;;;;;4.17;62.86;100330.09;5134043;27;20106;-26
2023/12/04 04:31:10;;;;;;;6.78;4.07;;;;;;;3.75;64.13;100327.94;5134084;27;20434;-26
2023/12/04 04:33:35;;;;;;;7.72;4.28;;;;;;;3.85;63.82;100312.91;5132853;27;20095;-26
2023/12/04 04:36:00;;;;;;;6.63;4.47;;;;;;;4.27;63.28;100320.31;5133602;27;20461;-26
2023/12/04 04:38:26;;;;;;;7.25;4.35;;;;;;;3.88;63.73;100314.41;5133900;27;20133;-26
2023/12/04 04:40:52;;;;;;;8.82;4.40;;;;;;;3.59;63.81;100320.63;5133612;27;20038;-26
2023/12/04 04:43:18;;;;;;;7.53;4.18;;;;;;;3.82;63.58;100322.91;5133995;27;20134;-25
2023/12/04 04:45:43;;;;;;;7.35;4.38;;;;;;;3.65;63.14;100340.28;5133702;27;20085;-26
2023/12/04 04:48:09;;;;;;;6.88;4.53;;;;;;;3.91;62.57;100337.84;5133757;27;20055;-26
2023/12/04 04:50:34;;;;;;;7.00;4.60;;;;;;;3.59;62.67;100335.59;5133357;27;20035;-26
2023/12/04 04:53:00;;;;;;;8.50;4.85;;;;;;;3.57;63.19;100341.00;5133859;27;20027;-26
2023/12/04 04:55:25;;;;;;;7.95;4.60;;;;;;;3.79;63.29;100337.19;5133741;27;20051;-26
2023/12/04 04:57:51;;;;;;;7.00;4.13;;;;;;;3.80;63.01;100349.38;5113347;27;20138;-25
2023/12/04 05:00:17;;;;;;;8.25;4.63;;;;;;;3.40;63.37;100321.53;5113253;28;20449;-26
2023/12/04 05:02:42;;;;;;;8.57;4.88;;;;;;;3.48;63.52;100355.88;5113199;28;20023;-27
2023/12/04 05:05:08;;;;;;;7.90;4.50;;;;;;;3.30;64.00;100349.66;5112817;28;20098;-26
2023/12/04 05:07:33;;;;;;;8.85;5.00;;;;;;;3.67;63.13;100364.66;5111494;28;20028;-26
2023/12/04 05:09:58;;;;;;;8.90;5.25;;;;;;;3.61;63.15;100367.88;5113162;28;20059;-26
2023/12/04 05:12:24;;;;;;;8.52;5.40;;;;;;;3.59;63.39;100372.44;5112938;28;20100;-26
2023/12/04 05:14:49;;;;;;;12.10;5.47;;;;;;;3.78;64.02;100375.03;5113012;28;20074;-27
2023/12/04 05:17:15;;;;;;;11.43;5.25;;;;;;;3.76;62.14;100374.34;5112956;28;20123;-26
2023/12/04 05:19:40;;;;;;;11.40;5.32;;;;;;;3.56;62.70;100372.72;5113115;28;20039;-26
2023/12/04 05:22:06;;;;;;;8.10;5.40;;;;;;;3.79;63.04;100389.00;5113220;28;20035;-27
2023/12/04 05:24:31;;;;;;;8.82;5.50;;;;;;;3.73;62.53;100393.03;5113087;28;20035;-26
2023/12/04 05:26:58;;;;;;;8.98;5.50;;;;;;;4.07;61.43;100403.91;5113100;28;20051;-27
2023/12/04 05:29:23;;;;;;;7.40;5.40;;;;;;;4.28;60.95;100406.28;5113307;28;20031;-27
2023/12/04 05:31:49;;;;;;;9.80;5.70;;;;;;;4.66;58.73;100408.84;5112804;28;20069;-26
2023/12/04 05:34:14;;;;;;;11.25;5.50;;;;;;;4.56;58.46;100403.63;5112967;28;20083;-39
2023/12/04 05:36:39;;;;;;;11.88;6.07;;;;;;;4.57;58.56;100405.31;5112370;28;20034;-38
2023/12/04 05:39:05;;;;;;;11.35;5.47;;;;;;;4.66;59.14;100403.56;5112826;28;20020;-40
2023/12/04 05:41:30;;;;;;;8.77;5.38;;;;;;;4.35;58.25;100401.25;5111457;28;20092;-39
2023/12/04 05:43:56;;;;;;;10.23;5.15;;;;;;;4.47;58.38;100393.97;5113012;28;20035;-40
2023/12/04 05:46:21;;;;;;;10.20;5.40;;;;;;;4.43;57.85;100413.69;5112252;28;20098;-39
2023/12/04 05:48:47;;;;;;;8.52;5.05;;;;;;;4.48;57.86;100420.19;5112192;28;20157;-40
2023/12/04 05:51:13;;;;;;;9.80;6.07;;;;;;;5.06;56.99;100420.75;5112464;27;20034;-40
2023/12/04 05:53:39;;;;;;;10.73;4.95;;;;;;;4.26;58.43;100424.03;5112734;28;20476;-39
2023/12/04 05:56:06;;;;;;;8.45;4.90;;;;;;;4.13;59.36;100415.63;5117331;27;20126;-39
2023/12/04 05:58:31;;;;;;;8.10;5.20;;;;;;;4.22;59.00;100445.56;5133335;27;20190;-40
2023/12/04 06:00:57;;;;;;;8.50;5.20;;;;;;;4.29;58.21;100444.00;5130071;27;20114;-40
2023/12/04 06:03:22;;;;;;;10.00;5.38;;;;;;;4.56;58.49;100440.53;5126493;27;20108;-38
2023/12/04 06:05:47;;;;;;;10.05;5.63;;;;;;;4.59;57.40;100447.31;5132927;27;20403;-39
2023/12/04 06:08:13;;;;;;;9.77;5.63;;;;;;;4.52;54.70;100443.63;5132209;27;20441;-42
2023/12/04 06:10:38;;;;;;;16.17;7.78;;;;;;;5.16;62.73;100441.78;5131950;27;20023;-40
2023/12/04 06:13:03;;;;;;;19.05;10.27;;;;;;;4.95;55.16;100448.22;5132185;27;20467;-39
2023/12/04 06:15:29;;;;;;;9.88;5.25;;;;;;;4.93;54.45;100426.44;5131908;27;20428;-40
2023/12/04 06:17:54;;;;;;;9.43;5.05;;;;;;;4.93;54.90;100442.25;5131293;27;20023;-40
2023/12/04 06:20:20;;;;;;;9.82;5.45;;;;;;;4.87;54.51;100441.06;5130291;27;20453;-38
2023/12/04 06:22:45;;;;;;;9.20;5.35;;;;;;;5.08;54.20;100451.31;5130380;27;20026;-40
2023/12/04 06:25:11;;;;;;;9.00;5.30;;;;;;;5.04;54.55;100460.47;5131191;27;20029;-40
2023/12/04 06:27:38;;;;;;;9.00;5.10;;;;;;;5.02;54.43;100451.06;5131912;27;20023;-40
2023/12/04 06:30:05;;;;;;;8.68;5.15;;;;;;;5.22;54.56;100468.41;5132530;27;20382;-41
2023/12/04 06:32:31;;;;;;;8.25;5.15;;;;;;;5.16;54.55;100481.38;5132385;27;20031;-41
2023/12/04 06:34:57;;;;;;;12.50;4.65;;;;;;;4.68;56.55;100476.28;5132019;27;20531;-41
2023/12/04 06:37:23;;;;;;;8.73;4.60;;;;;;;4.14;56.96;100470.00;5131983;27;20019;-40
2023/12/04 06:39:51;;;;;;;8.45;4.78;;;;;;;4.08;57.06;100481.09;5130779;27;20030;-38
2023/12/04 06:42:16;;;;;;;7.35;4.72;;;;;;;4.38;56.39;100485.31;5119511;27;20031;-39
2023/12/04 06:44:42;;;;;;;5.78;3.97;;;;;;;3.92;57.17;100481.69;5132408;27;20034;-40
2023/12/04 06:47:08;;;;;;;7.25;4.65;;;;;;;4.16;56.29;100478.56;5132757;27;20015;-40
2023/12/04 06:49:34;;;;;;;5.88;4.18;;;;;;;4.40;55.96;100475.44;5132762;27;20034;-39
2023/12/04 06:52:00;;;;;;;6.70;4.35;;;;;;;4.72;55.17;100475.97;5132795;27;20071;-41
2023/12/04 06:54:25;;;;;;;6.20;4.15;;;;;;;4.55;55.04;100481.06;5132267;27;20026;-40
2023/12/04 06:56:51;;;;;;;6.53;4.43;;;;;;;4.45;55.67;100490.81;5131658;27;20057;-41
2023/12/04 06:59:20;;;;;;;6.65;4.53;;;;;;;4.59;55.39;100492.97;5131720;27;20033;-41
2023/12/04 07:01:46;;;;;;;7.80;4.60;;;;;;;4.41;55.79;100497.34;5132126;28;20031;-41
2023/12/04 07:04:11;;;;;;;8.10;4.53;;;;;;;4.35;57.64;100500.56;5131663;28;20019;-40
2023/12/04 07:06:40;;;;;;;6.40;4.30;;;;;;;4.56;55.49;100508.25;5132170;28;20475;-40
2023/12/04 07:09:09;;;;;;;7.90;4.53;;;;;;;4.64;55.00;100509.16;5132246;28;20027;-40
2023/12/04 07:11:34;;;;;;;7.20;4.80;;;;;;;4.53;55.42;100509.34;5131303;28;20390;-39
2023/12/04 07:14:00;;;;;;;6.88;4.55;;;;;;;5.02;54.64;100509.94;5131670;28;20015;-39
2023/12/04 07:16:25;;;;;;;8.07;4.80;;;;;;;4.63;55.70;100515.44;5130601;27;20024;-37
2023/12/04 07:18:51;;;;;;;6.80;4.22;;;;;;;4.39;55.71;100515.94;5129797;28;20451;-40
2023/12/04 07:21:16;;;;;;;7.35;4.57;;;;;;;4.46;56.47;100522.28;5131159;28;20022;-40
2023/12/04 07:23:41;;;;;;;9.73;4.60;;;;;;;4.57;55.61;100516.03;5130832;28;20033;-42
2023/12/04 07:26:07;;;;;;;8.00;4.78;;;;;;;4.56;55.49;100516.97;5131137;28;20018;-39
2023/12/04 07:28:33;;;;;;;7.75;4.72;;;;;;;5.05;54.16;100519.38;5131312;28;20099;-39
2023/12/04 07:30:59;;;;;;;7.68;4.55;;;;;;;4.83;54.80;100523.25;5131210;28;20019;-40
2023/12/04 07:33:24;;;;;;;7.43;4.35;;;;;;;5.00;55.04;100511.88;5131992;27;20018;-39
2023/12/04 07:35:51;;;;;;;9.18;4.85;;;;;;;4.88;55.07;100513.91;5128855;28;20031;-41
2023/12/04 07:38:16;;;;;;;7.53;4.80;;;;;;;5.02;55.50;100517.84;5132276;27;20030;-40
2023/12/04 07:40:42;;;;;;;8.63;4.90;;;;;;;5.06;54.62;100519.22;5137232;27;20011;-40
2023/12/04 07:43:07;;;;;;;7.53;4.32;;;;;;;5.21;54.31;100524.81;5136531;27;20023;-44
2023/12/04 07:45:34;;;;;;;8.68;4.35;;;;;;;5.29;54.81;100514.34;5133826;27;20019;-42
2023/12/04 07:48:00;;;;;;;8.02;5.13;;;;;;;5.34;53.35;100521.81;5139324;27;20011;-39
2023/12/04 07:50:25;;;;;;;5.90;4.28;;;;;;;5.33;53.85;100520.16;5136089;27;20478;-39
2023/12/04 07:52:51;;;;;;;7.68;4.80;;;;;;;5.11;54.31;100529.31;5138419;27;20465;-39
2023/12/04 07:55:16;;;;;;;8.45;4.70;;;;;;;5.65;52.54;100519.63;5130239;27;20043;-38
2023/12/04 07:57:42;;;;;;;6.40;4.10;;;;;;;5.96;52.14;100531.59;5133970;27;20563;-41
2023/12/04 08:00:07;;;;;;;8.52;4.45;;;;;;;5.64;50.81;100525.06;5130914;28;20152;-40
2023/12/04 08:02:33;;;;;;;9.68;4.35;;;;;;;5.55;51.70;100526.78;5130990;28;20019;-41
2023/12/04 08:04:58;;;;;;;7.15;4.38;;;;;;;5.24;52.30;100528.97;5131216;28;20106;-40
2023/12/04 08:07:24;;;;;;;6.82;4.07;;;;;;;5.05;52.63;100520.19;5131660;27;20051;-40
2023/12/04 08:09:49;;;;;;;6.03;3.80;;;;;;;5.28;52.60;100525.88;5134839;27;20019;-40
2023/12/04 08:12:15;;;;;;;6.22;4.03;;;;;;;5.22;52.34;100525.66;5116409;27;20027;-40
2023/12/04 08:14:40;;;;;;;6.50;4.07;;;;;;;5.18;52.50;100538.31;5135109;27;20102;-43
2023/12/04 08:17:06;;;;;;;16.63;8.45;;;;;;;5.40;52.36;100534.41;5134844;27;20030;-41
2023/12/04 08:19:31;;;;;;;8.27;5.18;;;;;;;5.43;52.71;100531.47;5134897;27;20023;-41
2023/12/04 08:21:57;;;;;;;6.63;4.25;;;;;;;5.96;53.41;100535.06;5134946;27;20027;-40
2023/12/04 08:24:22;;;;;;;7.25;4.53;;;;;;;6.33;51.81;100530.53;5134946;27;20019;-43
2023/12/04 08:26:48;;;;;;;8.05;4.32;;;;;;;5.82;52.86;100523.19;5135001;27;20022;-43
2023/12/04 08:29:14;;;;;;;7.28;4.28;;;;;;;5.72;53.00;100522.47;5134937;27;20481;-42
2023/12/04 08:31:39;;;;;;;6.82;3.90;;;;;;;5.74;51.37;100520.50;5135013;27;20019;-41
2023/12/04 08:34:04;;;;;;;7.45;4.47;;;;;;;5.53;53.34;100527.94;5134689;27;20123;-42
2023/12/04 08:36:29;;;;;;;8.73;4.32;;;;;;;5.82;53.02;100525.03;5134565;27;20019;-41
2023/12/04 08:38:55;;;;;;;6.70;4.15;;;;;;;6.42;51.14;100524.28;5134833;27;20027;-40
2023/12/04 08:41:20;;;;;;;6.85;4.50;;;;;;;6.40;50.95;100537.66;5134502;27;20490;-43
2023/12/04 08:43:46;;;;;;;7.32;4.22;;;;;;;5.93;50.90;100516.84;5134620;27;20027;-39
2023/12/04 08:46:14;;;;;;;6.28;4.18;;;;;;;6.19;51.49;100540.69;5134234;27;20035;-41
2023/12/04 08:48:43;;;;;;;7.33;4.60;;;;;;;6.71;50.01;100544.28;5133927;27;20496;-42
2023/12/04 08:51:14;;;;;;;7.90;4.93;;;;;;;6.43;51.70;100547.09;5134463;27;20027;-41
2023/12/04 08:53:39;;;;;;;8.45;4.57;;;;;;;6.57;50.17;100543.06;5134317;27;20382;-42
2023/12/04 08:56:05;;;;;;;7.25;4.82;;;;;;;6.81;51.12;100542.31;5133978;27;20035;-40
2023/12/04 08:58:31;;;;;;;9.00;5.05;;;;;;;7.26;49.41;100540.31;5134099;27;20495;-40
2023/12/04 09:00:56;;;;;;;11.52;4.63;;;;;;;7.03;49.76;100547.03;5134379;27;20026;-43
2023/12/04 09:03:23;;;;;;;8.45;4.60;;;;;;;6.65;50.48;100540.44;5134128;27;20441;-45
2023/12/04 09:05:52;;;;;;;9.13;4.72;;;;;;;6.16;52.13;100537.50;5134492;27;20023;-43
2023/12/04 09:08:21;;;;;;;8.27;4.93;;;;;;;6.49;52.25;100535.88;5134160;27;20047;-40
2023/12/04 09:10:47;;;;;;;9.30;5.20;;;;;;;6.84;50.71;100524.31;5134238;27;20046;-41
2023/12/04 09:13:13;;;;;;;8.65;5.38;;;;;;;6.57;51.07;100529.84;5133474;27;20027;-42
2023/12/04 09:15:38;;;;;;;10.35;5.63;;;;;;;6.18;52.59;100539.00;5133830;27;20076;-39
2023/12/04 09:18:03;;;;;;;10.05;5.88;;;;;;;6.09;53.15;100513.50;5133338;27;20023;-41
2023/12/04 09:20:29;;;;;;;8.15;5.35;;;;;;;6.79;52.82;100525.78;5133966;27;20054;-39
2023/12/04 09:22:54;;;;;;;9.60;5.40;;;;;;;7.07;51.74;100518.44;5134038;27;20019;-45
2023/12/04 09:25:20;;;;;;;236.05;62.70;;;;;;;7.31;51.86;100514.16;5133867;27;20048;-40
2023/12/04 09:27:46;;;;;;;51.75;18.38;;;;;;;7.16;51.87;100519.25;5133398;27;20341;-41
2023/12/04 09:30:11;;;;;;;12.35;6.45;;;;;;;7.91;49.66;100521.81;5133736;27;20027;-42
2023/12/04 09:32:37;;;;;;;10.02;6.00;;;;;;;7.60;50.74;100514.53;5133396;27;20398;-38
2023/12/04 09:35:02;;;;;;;10.68;5.78;;;;;;;7.24;51.57;100503.41;5133268;27;20397;-41
2023/12/04 09:37:27;;;;;;;10.32;5.45;;;;;;;7.13;51.37;100495.78;5133220;27;20019;-42
2023/12/04 09:39:53;;;;;;;9.98;5.45;;;;;;;7.49;51.10;100490.19;5132701;27;20459;-43
2023/12/04 09:42:19;;;;;;;9.60;5.40;;;;;;;8.00;49.86;100499.59;5123343;27;20026;-41
2023/12/04 09:44:47;;;;;;;13.95;6.55;;;;;;;8.19;49.96;100503.69;5104350;28;20023;-40
2023/12/04 09:47:14;;;;;;;10.20;6.10;;;;;;;7.51;51.30;100501.44;5112622;28;20031;-42
2023/12/04 09:49:40;;;;;;;8.30;5.43;;;;;;;7.22;51.65;100506.22;5112598;28;20028;-42
2023/12/04 09:52:06;;;;;;;12.52;6.53;;;;;;;7.53;51.65;100502.13;5112483;28;20400;-41
2023/12/04 09:54:34;;;;;;;9.18;5.90;;;;;;;7.62;50.96;100496.66;5120484;27;20058;-39
2023/12/04 09:57:00;;;;;;;8.55;5.68;;;;;;;7.32;50.89;100498.13;5131575;27;20115;-41
2023/12/04 09:59:29;;;;;;;10.02;6.20;;;;;;;7.49;51.07;100501.59;5132882;27;20113;-40
2023/12/04 10:01:54;;;;;;;11.43;6.82;;;;;;;8.12;50.61;100507.19;5132485;27;20088;-40
2023/12/04 10:04:21;;;;;;;9.98;5.55;;;;;;;8.33;49.13;100506.66;5131896;27;20414;-42
2023/12/04 10:06:50;;;;;;;8.85;5.55;;;;;;;8.08;50.07;100511.19;5132564;27;20428;-41
2023/12/04 10:09:17;;;;;;;7.88;5.03;;;;;;;9.00;48.35;100501.78;5131667;27;20130;-42
2023/12/04 10:11:45;;;;;;;9.13;5.22;;;;;;;9.15;48.33;100498.34;5132019;27;20110;-42
2023/12/04 10:14:20;;;;;;;8.35;5.70;;;;;;;9.43;48.51;100485.38;5132324;27;20548;-36
2023/12/04 10:16:46;;;;;;;10.75;6.32;;;;;;;9.20;48.01;100488.03;5132321;27;20027;-40
2023/12/04 10:19:28;;;;;;;8.35;5.35;;;;;;;9.44;47.60;100484.38;5132942;27;20106;-38
2023/12/04 10:21:58;;;;;;;18.50;8.32;;;;;;;9.50;48.36;100494.31;5113762;27;20027;-37
2023/12/04 10:24:35;;;;;;;14.80;7.53;;;;;;;10.24;57.80;100501.56;5132478;27;20061;-41
2023/12/04 10:27:01;;;;;;;11.60;6.85;;;;;;;11.18;48.95;100486.81;5132320;27;20119;-42
2023/12/04 10:29:29;;;;;;;9.05;5.72;;;;;;;10.94;45.79;100494.94;5131937;27;20027;-41
2023/12/04 10:31:55;;;;;;;8.73;5.47;;;;;;;10.39;46.13;100487.50;5130740;27;20031;-41
2023/12/04 10:34:25;;;;;;;9.60;5.63;;;;;;;10.13;46.49;100486.91;5130879;27;20023;-38
2023/12/04 10:36:51;;;;;;;10.70;5.88;;;;;;;10.53;46.29;100486.69;5131219;27;20110;-40
2023/12/04 10:39:17;;;;;;;8.70;5.60;;;;;;;10.62;46.12;100479.41;5131307;27;20122;-40
2023/12/04 10:41:43;;;;;;;10.38;5.72;;;;;;;10.19;46.64;100482.69;5130974;27;20011;-42
2023/12/04 10:44:09;;;;;;;9.98;5.78;;;;;;;10.21;45.55;100488.66;5131100;27;20023;-42
2023/12/04 10:46:36;;;;;;;7.47;5.25;;;;;;;10.58;45.24;100476.28;5131043;27;20027;-41
2023/12/04 10:49:03;;;;;;;9.25;5.43;;;;;;;10.47;45.42;100477.59;5130946;27;20075;-40
2023/12/04 10:51:30;;;;;;;14.07;7.13;;;;;;;10.15;46.14;100479.56;5131403;27;20047;-40
2023/12/04 10:53:55;;;;;;;9.95;5.65;;;;;;;10.14;47.29;100479.75;5131026;27;20030;-41
2023/12/04 10:56:44;;;;;;;7.75;5.20;;;;;;;10.05;46.67;100472.88;5130856;27;20445;-41
2023/12/04 10:59:18;;;;;;;8.00;5.47;;;;;;;10.36;45.49;100470.88;5131137;27;20019;-40
2023/12/04 11:01:46;;;;;;;9.55;5.80;;;;;;;10.76;46.19;100473.25;5131235;27;20495;-40
2023/12/04 11:04:17;;;;;;;10.48;5.70;;;;;;;10.88;45.07;100487.69;5131338;28;20045;-40
2023/12/04 11:06:48;;;;;;;8.43;5.38;;;;;;;9.97;45.63;100476.44;5131457;28;20167;-40
2023/12/04 11:09:16;;;;;;;9.23;5.28;;;;;;;9.65;46.45;100481.03;5131653;28;20022;-40
2023/12/04 11:11:46;;;;;;;6.97;5.00;;;;;;;10.03;46.13;100483.69;5131375;28;20026;-40
2023/12/04 11:14:17;;;;;;;9.20;5.63;;;;;;;9.66;47.01;100481.88;5132222;28;20106;-43
2023/12/04 11:16:48;;;;;;;12.55;6.15;;;;;;;9.65;48.45;100489.00;5131442;28;20041;-42
2023/12/04 11:19:46;;;;;;;7.75;5.38;;;;;;;9.99;46.64;100487.72;5131816;28;20015;-38
2023/12/04 11:22:13;;;;;;;10.40;5.55;;;;;;;10.16;46.19;100483.88;5113823;28;20031;-42
2023/12/04 11:24:39;;;;;;;9.98;5.68;;;;;;;10.23;46.19;100491.97;5131290;28;20027;-41
2023/12/04 11:27:05;;;;;;;9.48;5.10;;;;;;;10.37;45.85;100477.84;5131449;28;20054;-42